createdAt,value
2022-10-25T00:01:58.340Z,13.50
2022-10-25T00:04:25.205Z,13.50
2022-10-25T00:06:51.974Z,13.50
2022-10-25T00:09:18.768Z,13.50
2022-10-25T00:11:45.541Z,13.40
2022-10-25T00:14:18.581Z,13.50
2022-10-25T00:16:45.264Z,13.50
2022-10-25T00:19:12.106Z,13.50
2022-10-25T00:21:38.862Z,13.50
2022-10-25T00:24:06.233Z,13.50
2022-10-25T00:26:33.132Z,13.50
2022-10-25T00:28:59.939Z,13.50
2022-10-25T00:31:26.851Z,13.40
2022-10-25T00:33:53.684Z,13.50
2022-10-25T00:36:23.331Z,13.40
2022-10-25T00:38:50.551Z,13.50
2022-10-25T00:41:23.704Z,13.50
2022-10-25T00:43:51.536Z,13.40
2022-10-25T00:46:21.019Z,13.30
2022-10-25T00:48:55.207Z,13.30
2022-10-25T00:51:45.807Z,13.30
2022-10-25T00:54:16.777Z,13.20
2022-10-25T00:56:46.941Z,13.10
2022-10-25T00:59:18.680Z,13.20
2022-10-25T01:01:45.655Z,13.20
2022-10-25T01:04:15.789Z,13.10
2022-10-25T01:06:47.509Z,13.00
2022-10-25T01:09:18.952Z,13.10
2022-10-25T01:11:45.840Z,13.10
2022-10-25T01:14:15.619Z,13.10
2022-10-25T01:16:57.676Z,13.20
2022-10-25T01:19:59.436Z,13.20
2022-10-25T01:22:41.251Z,13.10
2022-10-25T01:25:32.543Z,13.10
2022-10-25T01:28:15.349Z,13.10
2022-10-25T01:31:18.615Z,13.10
2022-10-25T01:34:24.443Z,13.20
2022-10-25T01:37:23.306Z,13.20
2022-10-25T01:40:19.160Z,13.10
2022-10-25T01:43:20.217Z,13.10
2022-10-25T01:46:07.722Z,13.00
2022-10-25T01:48:41.256Z,13.00
2022-10-25T01:51:14.354Z,13.00
2022-10-25T01:53:51.583Z,12.90
2022-10-25T01:56:39.113Z,12.90
2022-10-25T01:59:30.908Z,12.80
2022-10-25T02:02:15.376Z,12.80
2022-10-25T02:05:00.364Z,12.80
2022-10-25T02:07:33.733Z,12.80
2022-10-25T02:10:07.672Z,12.80
2022-10-25T02:12:43.613Z,12.80
2022-10-25T02:15:18.270Z,12.70
2022-10-25T02:17:53.771Z,12.80
2022-10-25T02:20:23.029Z,12.80
2022-10-25T02:22:52.043Z,12.70
2022-10-25T02:25:20.274Z,12.70
2022-10-25T02:27:48.128Z,12.70
2022-10-25T02:30:15.184Z,12.60
2022-10-25T02:32:42.575Z,12.70
2022-10-25T02:35:17.098Z,12.70
2022-10-25T02:37:44.287Z,12.80
2022-10-25T02:40:12.241Z,12.80
2022-10-25T02:42:39.108Z,12.80
2022-10-25T02:45:06.845Z,12.80
2022-10-25T02:47:33.728Z,12.90
2022-10-25T02:50:00.532Z,12.90
2022-10-25T02:52:27.547Z,13.00
2022-10-25T02:54:54.416Z,13.00
2022-10-25T02:57:21.171Z,13.00
2022-10-25T02:59:48.713Z,13.00
2022-10-25T03:02:15.458Z,13.10
2022-10-25T03:04:42.232Z,13.10
2022-10-25T03:07:08.975Z,13.20
2022-10-25T03:09:35.882Z,13.20
2022-10-25T03:12:02.701Z,13.20
2022-10-25T03:14:29.580Z,13.20
2022-10-25T03:16:56.353Z,13.40
2022-10-25T03:19:23.155Z,13.30
2022-10-25T03:21:49.905Z,13.30
2022-10-25T03:24:16.853Z,13.30
2022-10-25T03:26:43.613Z,13.30
2022-10-25T03:29:11.036Z,13.30
2022-10-25T03:31:37.808Z,13.30
2022-10-25T03:34:04.589Z,13.40
2022-10-25T03:36:31.580Z,13.50
2022-10-25T03:38:58.345Z,13.50
2022-10-25T03:41:25.182Z,13.40
2022-10-25T03:43:52.041Z,13.40
2022-10-25T03:46:19.451Z,13.50
2022-10-25T03:48:46.208Z,13.50
2022-10-25T03:51:12.984Z,13.50
2022-10-25T03:53:39.776Z,13.50
2022-10-25T03:56:07.078Z,13.40
2022-10-25T03:58:33.909Z,13.40
2022-10-25T04:01:00.776Z,13.40
2022-10-25T04:03:27.776Z,13.50
2022-10-25T04:05:54.556Z,13.40
2022-10-25T04:08:21.306Z,13.40
2022-10-25T04:10:48.126Z,13.40
2022-10-25T04:13:14.873Z,13.40
2022-10-25T04:15:41.671Z,13.50
2022-10-25T04:18:08.429Z,13.50
2022-10-25T04:20:35.282Z,13.40
2022-10-25T04:23:02.057Z,13.40
2022-10-25T04:25:29.152Z,13.40
2022-10-25T04:27:57.841Z,13.30
2022-10-25T04:30:24.784Z,13.40
2022-10-25T04:32:51.870Z,13.30
2022-10-25T04:35:18.901Z,13.30
2022-10-25T04:37:45.759Z,13.30
2022-10-25T04:40:12.772Z,13.40
2022-10-25T04:42:39.531Z,13.40
2022-10-25T04:45:06.648Z,13.40
2022-10-25T04:47:33.607Z,13.40
2022-10-25T04:50:00.930Z,13.40
2022-10-25T04:52:31.282Z,13.40
2022-10-25T04:54:58.442Z,13.30
2022-10-25T04:57:26.201Z,13.40
2022-10-25T04:59:53.435Z,13.40
2022-10-25T05:02:20.201Z,13.30
2022-10-25T05:04:46.955Z,13.40
2022-10-25T05:07:13.724Z,13.40
2022-10-25T05:09:43.838Z,13.40
2022-10-25T05:12:13.626Z,13.40
2022-10-25T05:14:40.420Z,13.30
2022-10-25T05:17:07.179Z,13.30
2022-10-25T05:19:33.969Z,13.30
2022-10-25T05:22:00.811Z,13.20
2022-10-25T05:24:27.961Z,13.20
2022-10-25T05:26:54.798Z,13.20
2022-10-25T05:29:21.562Z,13.20
2022-10-25T05:31:48.345Z,13.10
2022-10-25T05:34:15.144Z,13.20
2022-10-25T05:36:42.181Z,13.20
2022-10-25T05:39:08.926Z,13.10
2022-10-25T05:41:37.223Z,13.10
2022-10-25T05:44:05.749Z,13.10
2022-10-25T05:46:32.656Z,13.10
2022-10-25T05:48:59.907Z,13.10
2022-10-25T05:51:37.224Z,13.00
2022-10-25T05:54:11.296Z,13.00
2022-10-25T05:56:39.089Z,13.00
2022-10-25T05:59:15.350Z,13.10
2022-10-25T06:01:44.955Z,13.10
2022-10-25T06:04:13.307Z,13.00
2022-10-25T06:06:40.972Z,13.00
2022-10-25T06:09:08.001Z,13.00
2022-10-25T06:11:35.335Z,13.00
2022-10-25T06:14:02.199Z,13.00
2022-10-25T06:16:29.049Z,12.90
2022-10-25T06:18:56.567Z,13.00
2022-10-25T06:21:28.125Z,13.00
2022-10-25T06:23:56.052Z,13.00
2022-10-25T06:26:25.888Z,13.00
2022-10-25T06:29:00.853Z,13.00
2022-10-25T06:31:29.519Z,13.00
2022-10-25T06:33:56.594Z,13.00
2022-10-25T06:36:24.721Z,13.10
2022-10-25T06:38:51.893Z,13.10
2022-10-25T06:41:28.086Z,13.20
2022-10-25T06:43:55.466Z,13.10
2022-10-25T06:46:30.674Z,13.00
2022-10-25T06:48:58.802Z,12.90
2022-10-25T06:51:27.243Z,13.00
2022-10-25T06:53:55.260Z,13.00
2022-10-25T06:56:23.117Z,13.00
2022-10-25T06:58:50.160Z,13.00
2022-10-25T07:01:19.584Z,13.20
2022-10-25T07:03:46.727Z,13.10
2022-10-25T07:06:16.063Z,13.20
2022-10-25T07:08:46.038Z,13.10
2022-10-25T07:11:18.715Z,13.20
2022-10-25T07:13:46.170Z,13.20
2022-10-25T07:16:15.345Z,13.20
2022-10-25T07:18:42.750Z,13.30
2022-10-25T07:21:12.873Z,13.40
2022-10-25T07:23:43.862Z,13.40
2022-10-25T07:26:16.848Z,13.40
2022-10-25T07:28:45.359Z,13.40
2022-10-25T07:31:14.146Z,13.40
2022-10-25T07:33:41.299Z,13.40
2022-10-25T07:36:12.057Z,13.40
2022-10-25T07:38:39.501Z,13.50
2022-10-25T07:41:06.705Z,13.50
2022-10-25T07:43:34.162Z,13.50
2022-10-25T07:46:01.044Z,13.50
2022-10-25T07:48:28.199Z,13.60
2022-10-25T07:50:54.995Z,13.70
2022-10-25T07:53:21.850Z,13.70
2022-10-25T07:55:55.783Z,13.70
2022-10-25T07:58:22.618Z,13.80
2022-10-25T08:00:49.696Z,13.80
2022-10-25T08:03:18.593Z,13.80
2022-10-25T08:05:47.479Z,13.90
2022-10-25T08:08:15.371Z,13.90
2022-10-25T08:10:43.924Z,13.90
2022-10-25T08:13:10.971Z,14.00
2022-10-25T08:15:38.235Z,14.10
2022-10-25T08:18:07.406Z,14.10
2022-10-25T08:21:00.191Z,14.10
2022-10-25T08:23:21.369Z,14.20
2022-10-25T08:25:48.455Z,14.20
2022-10-25T08:28:15.326Z,14.30
2022-10-25T08:30:42.291Z,14.30
2022-10-25T08:33:11.756Z,14.40
2022-10-25T08:35:39.060Z,14.30
2022-10-25T08:38:06.455Z,14.30
2022-10-25T08:40:42.723Z,14.40
2022-10-25T08:43:33.975Z,14.40
2022-10-25T08:46:05.880Z,14.40
2022-10-25T08:48:40.636Z,14.40
2022-10-25T08:51:35.327Z,14.40
2022-10-25T08:54:36.753Z,14.40
2022-10-25T08:57:35.778Z,14.50
2022-10-25T09:00:10.466Z,14.50
2022-10-25T09:02:57.639Z,14.50
2022-10-25T09:05:36.421Z,14.50
2022-10-25T09:08:15.534Z,14.60
2022-10-25T09:10:49.213Z,14.50
2022-10-25T09:13:37.752Z,14.60
2022-10-25T09:16:14.867Z,14.50
2022-10-25T09:18:57.685Z,14.60
2022-10-25T09:21:37.485Z,14.70
2022-10-25T09:24:24.728Z,14.70
2022-10-25T09:27:07.599Z,14.70
2022-10-25T09:29:39.150Z,14.70
2022-10-25T09:32:21.748Z,14.90
2022-10-25T09:34:48.789Z,15.00
2022-10-25T09:37:27.347Z,15.10
2022-10-25T09:39:59.539Z,15.10
2022-10-25T09:42:49.046Z,15.10
2022-10-25T09:45:22.085Z,15.10
2022-10-25T09:47:53.370Z,15.10
2022-10-25T09:51:01.784Z,15.10
2022-10-25T09:53:33.886Z,15.10
2022-10-25T09:56:04.447Z,15.10
2022-10-25T09:58:33.850Z,15.00
2022-10-25T10:01:21.355Z,15.00
2022-10-25T10:03:52.423Z,15.00
2022-10-25T10:06:31.846Z,14.90
2022-10-25T10:09:06.060Z,15.10
2022-10-25T10:11:34.478Z,15.20
2022-10-25T10:14:12.111Z,15.20
2022-10-25T10:16:54.734Z,15.20
2022-10-25T10:19:29.880Z,15.20
2022-10-25T10:22:18.430Z,15.20
2022-10-25T10:24:49.321Z,15.20
2022-10-25T10:27:22.300Z,15.20
2022-10-25T10:30:07.131Z,15.30
2022-10-25T10:32:36.298Z,15.30
2022-10-25T10:35:05.780Z,15.30
2022-10-25T10:37:34.323Z,15.40
2022-10-25T10:40:07.285Z,15.40
2022-10-25T10:42:37.046Z,15.50
2022-10-25T10:45:09.726Z,15.50
2022-10-25T10:47:51.711Z,15.60
2022-10-25T10:50:25.618Z,15.60
2022-10-25T10:53:00.337Z,15.60
2022-10-25T10:55:38.082Z,15.60
2022-10-25T10:58:14.513Z,15.60
2022-10-25T11:00:57.303Z,15.70
2022-10-25T11:03:42.478Z,15.70
2022-10-25T11:06:16.045Z,15.70
2022-10-25T11:08:44.673Z,15.60
2022-10-25T11:11:20.058Z,15.60
2022-10-25T11:14:01.174Z,15.60
2022-10-25T11:16:55.959Z,15.50
2022-10-25T11:19:45.677Z,15.60
2022-10-25T11:22:24.485Z,15.60
2022-10-25T11:25:12.532Z,15.60
2022-10-25T11:27:57.463Z,15.50
2022-10-25T11:30:28.984Z,15.60
2022-10-25T11:33:23.596Z,15.60
2022-10-25T11:36:12.204Z,15.60
2022-10-25T11:38:39.046Z,15.60
2022-10-25T11:41:14.913Z,15.60
2022-10-25T11:44:10.585Z,15.60
2022-10-25T11:47:42.207Z,15.60
2022-10-25T11:50:49.317Z,15.70
2022-10-25T11:53:25.300Z,16.00
2022-10-25T11:56:15.193Z,16.20
2022-10-25T11:59:09.756Z,16.40
2022-10-25T12:02:11.406Z,16.50
2022-10-25T12:04:53.402Z,16.50
2022-10-25T12:07:24.680Z,16.50
2022-10-25T12:10:06.624Z,16.60
2022-10-25T12:12:45.860Z,16.70
2022-10-25T12:15:24.270Z,16.70
2022-10-25T12:17:52.903Z,16.70
2022-10-25T12:20:28.986Z,16.80
2022-10-25T12:22:59.862Z,16.90
2022-10-25T12:25:31.373Z,16.90
2022-10-25T12:28:19.957Z,16.80
2022-10-25T12:30:48.334Z,16.60
2022-10-25T12:33:44.116Z,16.60
2022-10-25T12:36:18.765Z,16.50
2022-10-25T12:38:45.647Z,16.60
2022-10-25T12:41:24.404Z,16.50
2022-10-25T12:43:57.457Z,16.50
2022-10-25T12:46:58.300Z,16.40
2022-10-25T12:50:00.331Z,16.50
2022-10-25T12:52:41.982Z,16.50
2022-10-25T12:55:24.203Z,16.50
2022-10-25T12:58:05.965Z,16.60
2022-10-25T13:00:46.867Z,16.60
2022-10-25T13:03:35.085Z,16.50
2022-10-25T13:06:34.225Z,16.50
2022-10-25T13:09:08.185Z,16.50
2022-10-25T13:11:39.217Z,16.40
2022-10-25T13:14:27.217Z,16.50
2022-10-25T13:17:16.883Z,16.60
2022-10-25T13:19:55.625Z,16.60
2022-10-25T13:22:40.915Z,16.60
2022-10-25T13:25:14.054Z,16.70
2022-10-25T13:28:15.909Z,16.80
2022-10-25T13:30:44.112Z,16.90
2022-10-25T13:33:22.569Z,16.90
2022-10-25T13:35:49.381Z,17.00
2022-10-25T13:38:39.663Z,17.10
2022-10-25T13:41:19.795Z,17.00
2022-10-25T13:44:01.812Z,17.10
2022-10-25T13:46:36.254Z,17.10
2022-10-25T13:49:28.616Z,17.10
2022-10-25T13:51:58.653Z,17.20
2022-10-25T13:54:36.543Z,17.30
2022-10-25T13:57:03.370Z,17.20
2022-10-25T13:59:56.583Z,17.20
2022-10-25T14:02:23.541Z,17.10
2022-10-25T14:04:50.436Z,17.10
2022-10-25T14:07:46.627Z,16.90
2022-10-25T14:10:20.815Z,16.80
2022-10-25T14:12:50.137Z,16.70
2022-10-25T14:15:30.837Z,16.70
2022-10-25T14:17:59.050Z,16.70
2022-10-25T14:20:30.132Z,16.70
2022-10-25T14:23:00.981Z,16.80
2022-10-25T14:25:42.584Z,16.70
2022-10-25T14:28:22.843Z,16.80
2022-10-25T14:30:52.913Z,16.80
2022-10-25T14:33:40.957Z,16.80
2022-10-25T14:36:27.708Z,16.70
2022-10-25T14:39:00.120Z,16.70
2022-10-25T14:41:32.308Z,16.60
2022-10-25T14:43:59.364Z,16.60
2022-10-25T14:46:28.027Z,16.50
2022-10-25T14:49:03.616Z,16.50
2022-10-25T14:51:34.536Z,16.50
2022-10-25T14:54:08.412Z,16.40
2022-10-25T14:56:40.425Z,16.30
2022-10-25T14:59:28.006Z,16.20
2022-10-25T15:02:02.188Z,16.20
2022-10-25T15:04:39.466Z,16.10
2022-10-25T15:07:07.905Z,16.00
2022-10-25T15:09:42.570Z,16.00
2022-10-25T15:12:13.091Z,16.00
2022-10-25T15:14:40.116Z,16.00
2022-10-25T15:17:16.972Z,16.00
2022-10-25T15:20:00.457Z,16.00
2022-10-25T15:22:54.556Z,16.00
2022-10-25T15:25:24.399Z,16.00
2022-10-25T15:27:55.719Z,16.00
2022-10-25T15:30:48.514Z,16.00
2022-10-25T15:33:26.789Z,15.90
2022-10-25T15:35:56.484Z,15.90
2022-10-25T15:38:42.037Z,15.90
2022-10-25T15:41:14.354Z,15.90
2022-10-25T15:43:41.165Z,15.80
2022-10-25T15:46:34.875Z,15.80
2022-10-25T15:49:06.730Z,15.80
2022-10-25T15:51:36.181Z,15.70
2022-10-25T15:54:03.333Z,15.70
2022-10-25T15:56:30.196Z,15.70
2022-10-25T15:58:58.716Z,15.70
2022-10-25T16:01:25.773Z,15.70
2022-10-25T16:03:52.602Z,15.70
2022-10-25T16:06:19.490Z,15.60
2022-10-25T16:08:46.267Z,15.70
2022-10-25T16:11:20.067Z,15.60
2022-10-25T16:13:50.038Z,15.50
2022-10-25T16:16:39.387Z,15.50
2022-10-25T16:19:11.682Z,15.40
2022-10-25T16:21:38.486Z,15.30
2022-10-25T16:24:05.362Z,15.30
2022-10-25T16:26:38.715Z,15.30
2022-10-25T16:29:06.381Z,15.20
2022-10-25T16:31:33.229Z,15.10
2022-10-25T16:34:00.007Z,15.10
2022-10-25T16:36:26.973Z,15.00
2022-10-25T16:38:53.794Z,14.90
2022-10-25T16:41:26.366Z,14.90
2022-10-25T16:43:53.165Z,14.80
2022-10-25T16:46:20.038Z,14.80
2022-10-25T16:48:47.045Z,14.70
2022-10-25T16:51:18.270Z,14.60
2022-10-25T16:53:47.179Z,14.60
2022-10-25T16:56:14.752Z,14.50
2022-10-25T16:58:42.130Z,14.50
2022-10-25T17:01:37.983Z,14.40
2022-10-25T17:04:07.020Z,14.40
2022-10-25T17:06:41.211Z,14.30
2022-10-25T17:09:09.429Z,14.30
2022-10-25T17:11:36.527Z,14.30
2022-10-25T17:14:03.935Z,14.20
2022-10-25T17:16:30.833Z,14.20
2022-10-25T17:18:57.868Z,14.10
2022-10-25T17:21:24.735Z,14.10
2022-10-25T17:23:51.665Z,14.10
2022-10-25T17:26:18.484Z,14.00
2022-10-25T17:28:45.315Z,14.00
2022-10-25T17:31:14.553Z,14.00
2022-10-25T17:33:42.495Z,13.90
2022-10-25T17:36:16.317Z,13.90
2022-10-25T17:38:44.047Z,13.90
2022-10-25T17:41:12.070Z,13.80
2022-10-25T17:43:40.032Z,13.80
2022-10-25T17:46:10.042Z,13.80
2022-10-25T17:48:36.892Z,13.80
2022-10-25T17:51:08.380Z,13.70
2022-10-25T17:53:35.413Z,13.70
2022-10-25T17:56:12.843Z,13.60
2022-10-25T17:58:44.247Z,13.60
2022-10-25T18:01:12.903Z,13.60
2022-10-25T18:03:40.043Z,13.50
2022-10-25T18:06:12.719Z,13.50
2022-10-25T18:08:39.778Z,13.50
2022-10-25T18:11:14.080Z,13.40
2022-10-25T18:13:41.736Z,13.40
2022-10-25T18:16:09.945Z,13.40
2022-10-25T18:18:37.112Z,13.40
2022-10-25T18:21:09.331Z,13.30
2022-10-25T18:23:36.290Z,13.30
2022-10-25T18:26:04.840Z,13.30
2022-10-25T18:28:35.876Z,13.20
2022-10-25T18:31:07.582Z,13.20
2022-10-25T18:33:36.798Z,13.20
2022-10-25T18:36:06.802Z,13.20
2022-10-25T18:38:33.968Z,13.20
2022-10-25T18:41:05.534Z,13.10
2022-10-25T18:43:32.771Z,13.10
2022-10-25T18:45:59.858Z,13.10
2022-10-25T18:48:27.726Z,13.10
2022-10-25T18:50:54.899Z,13.10
2022-10-25T18:53:22.083Z,13.10
2022-10-25T18:55:53.091Z,13.00
2022-10-25T18:58:20.303Z,13.00
2022-10-25T19:00:47.156Z,13.00
2022-10-25T19:03:15.526Z,13.00
2022-10-25T19:05:43.289Z,13.00
2022-10-25T19:08:11.402Z,12.90
2022-10-25T19:10:40.081Z,13.00
2022-10-25T19:13:09.455Z,12.90
2022-10-25T19:15:36.401Z,12.90
2022-10-25T19:18:03.230Z,12.80
2022-10-25T19:20:30.055Z,12.80
2022-10-25T19:22:58.842Z,12.80
2022-10-25T19:25:29.640Z,12.80
2022-10-25T19:27:57.489Z,12.70
2022-10-25T19:30:24.967Z,12.70
2022-10-25T19:32:52.167Z,12.70
2022-10-25T19:35:19.540Z,12.60
2022-10-25T19:37:47.261Z,12.60
2022-10-25T19:40:14.384Z,12.60
2022-10-25T19:42:41.246Z,12.60
2022-10-25T19:45:09.078Z,12.50
2022-10-25T19:47:36.030Z,12.40
2022-10-25T19:50:05.579Z,12.40
2022-10-25T19:52:36.733Z,12.40
2022-10-25T19:55:06.172Z,12.40
2022-10-25T19:57:34.030Z,12.30
2022-10-25T20:00:01.287Z,12.30
2022-10-25T20:02:28.216Z,12.20
2022-10-25T20:04:55.564Z,12.20
2022-10-25T20:07:22.363Z,12.20
2022-10-25T20:09:49.159Z,12.10
2022-10-25T20:12:16.032Z,12.10
2022-10-25T20:14:42.883Z,12.10
2022-10-25T20:17:09.959Z,12.10
2022-10-25T20:19:36.879Z,12.00
2022-10-25T20:22:05.162Z,12.00
2022-10-25T20:24:31.985Z,12.00
2022-10-25T20:27:00.030Z,12.00
2022-10-25T20:29:27.617Z,11.90
2022-10-25T20:31:54.639Z,11.90
2022-10-25T20:34:21.539Z,11.80
2022-10-25T20:36:49.188Z,11.80
2022-10-25T20:39:16.042Z,11.80
2022-10-25T20:41:43.829Z,11.80
2022-10-25T20:44:10.985Z,11.80
2022-10-25T20:46:38.038Z,11.70
2022-10-25T20:49:07.338Z,11.70
2022-10-25T20:51:34.975Z,11.70
2022-10-25T20:54:05.244Z,11.70
2022-10-25T20:56:32.116Z,11.60
2022-10-25T20:58:58.908Z,11.60
2022-10-25T21:01:25.781Z,11.60
2022-10-25T21:03:54.109Z,11.60
2022-10-25T21:06:20.898Z,11.60
2022-10-25T21:08:47.701Z,11.50
2022-10-25T21:11:14.602Z,11.50
2022-10-25T21:13:41.830Z,11.60
2022-10-25T21:16:14.334Z,11.50
2022-10-25T21:18:42.570Z,11.50
2022-10-25T21:21:15.055Z,11.50
2022-10-25T21:23:41.890Z,11.50
2022-10-25T21:26:09.475Z,11.50
2022-10-25T21:28:38.517Z,11.50
2022-10-25T21:31:07.850Z,11.40
2022-10-25T21:33:34.859Z,11.40
2022-10-25T21:36:12.491Z,11.40
2022-10-25T21:38:39.944Z,11.40
2022-10-25T21:41:11.997Z,11.30
2022-10-25T21:43:43.243Z,11.30
2022-10-25T21:46:10.068Z,11.30
2022-10-25T21:48:36.857Z,11.30
2022-10-25T21:51:04.174Z,11.20
2022-10-25T21:53:31.354Z,11.20
2022-10-25T21:56:18.436Z,11.20
2022-10-25T21:58:47.106Z,11.20
2022-10-25T22:01:22.344Z,11.20
2022-10-25T22:03:49.258Z,11.20
2022-10-25T22:06:18.192Z,11.10
2022-10-25T22:08:45.663Z,11.00
2022-10-25T22:11:15.670Z,11.00
2022-10-25T22:13:43.175Z,11.00
2022-10-25T22:16:16.057Z,11.00
2022-10-25T22:18:47.635Z,11.00
2022-10-25T22:21:14.958Z,11.00
2022-10-25T22:23:41.818Z,10.90
2022-10-25T22:26:15.311Z,10.90
2022-10-25T22:28:42.296Z,10.90
2022-10-25T22:31:15.155Z,10.90
2022-10-25T22:33:43.106Z,10.90
2022-10-25T22:36:20.932Z,10.90
2022-10-25T22:38:47.959Z,10.90
2022-10-25T22:41:17.153Z,10.90
2022-10-25T22:43:44.744Z,10.90
2022-10-25T22:46:17.315Z,10.90
2022-10-25T22:48:46.254Z,10.90
2022-10-25T22:51:13.256Z,10.90
2022-10-25T22:53:41.245Z,10.90
2022-10-25T22:56:15.689Z,10.80
2022-10-25T22:58:47.181Z,10.80
2022-10-25T23:01:16.379Z,10.80
2022-10-25T23:03:45.670Z,10.80
2022-10-25T23:06:14.801Z,10.80
2022-10-25T23:08:42.254Z,10.80
2022-10-25T23:11:18.789Z,10.80
2022-10-25T23:13:46.331Z,10.80
2022-10-25T23:16:15.441Z,10.80
2022-10-25T23:18:43.136Z,10.80
2022-10-25T23:21:23.306Z,10.80
2022-10-25T23:23:52.908Z,10.70
2022-10-25T23:26:22.171Z,10.70
2022-10-25T23:28:49.705Z,10.70
2022-10-25T23:31:17.401Z,10.70
2022-10-25T23:33:44.772Z,10.70
2022-10-25T23:36:15.496Z,10.70
2022-10-25T23:38:43.469Z,10.70
2022-10-25T23:41:10.514Z,10.70
2022-10-25T23:43:37.491Z,10.70
2022-10-25T23:46:05.039Z,10.60
2022-10-25T23:48:32.242Z,10.60
2022-10-25T23:53:34.161Z,10.60
2022-10-25T23:56:01.931Z,10.50
2022-10-25T23:58:28.903Z,10.50
